sensor_id;sensor_type;location;lat;lon;timestamp;P1;durP1;ratioP1;P2;durP2;ratioP2
11588;SDS011;5850;51.360;12.362;2023-05-10T00:01:50;5.77;;;4.00;;
11588;SDS011;5850;51.360;12.362;2023-05-10T00:04:18;4.33;;;3.97;;
11588;SDS011;5850;51.360;12.362;2023-05-10T00:06:47;5.57;;;4.37;;
11588;SDS011;5850;51.360;12.362;2023-05-10T00:09:16;5.87;;;4.47;;
11588;SDS011;5850;51.360;12.362;2023-05-10T00:11:44;4.47;;;4.07;;
11588;SDS011;5850;51.360;12.362;2023-05-10T00:14:12;4.70;;;4.20;;
11588;SDS011;5850;51.360;12.362;2023-05-10T00:16:40;5.13;;;4.27;;
11588;SDS011;5850;51.360;12.362;2023-05-10T00:19:09;5.30;;;4.13;;
11588;SDS011;5850;51.360;12.362;2023-05-10T00:21:37;4.90;;;4.40;;
11588;SDS011;5850;51.360;12.362;2023-05-10T00:24:05;5.17;;;4.67;;
11588;SDS011;5850;51.360;12.362;2023-05-10T00:26:34;4.50;;;4.10;;
11588;SDS011;5850;51.360;12.362;2023-05-10T00:29:02;5.97;;;4.27;;
11588;SDS011;5850;51.360;12.362;2023-05-10T00:31:30;4.67;;;4.17;;
11588;SDS011;5850;51.360;12.362;2023-05-10T00:33:58;5.33;;;4.50;;
11588;SDS011;5850;51.360;12.362;2023-05-10T00:36:27;6.30;;;5.70;;
11588;SDS011;5850;51.360;12.362;2023-05-10T00:38:57;5.30;;;4.37;;
11588;SDS011;5850;51.360;12.362;2023-05-10T00:41:26;4.87;;;4.30;;
11588;SDS011;5850;51.360;12.362;2023-05-10T00:43:55;7.77;;;4.87;;
11588;SDS011;5850;51.360;12.362;2023-05-10T00:46:23;4.90;;;4.40;;
11588;SDS011;5850;51.360;12.362;2023-05-10T00:48:51;5.87;;;4.47;;
11588;SDS011;5850;51.360;12.362;2023-05-10T00:51:20;4.13;;;3.73;;
11588;SDS011;5850;51.360;12.362;2023-05-10T00:53:49;5.80;;;4.20;;
11588;SDS011;5850;51.360;12.362;2023-05-10T00:56:17;5.27;;;4.77;;
11588;SDS011;5850;51.360;12.362;2023-05-10T00:58:46;12.37;;;4.83;;
11588;SDS011;5850;51.360;12.362;2023-05-10T01:01:15;7.70;;;4.23;;
11588;SDS011;5850;51.360;12.362;2023-05-10T01:03:43;5.87;;;4.60;;
11588;SDS011;5850;51.360;12.362;2023-05-10T01:08:46;7.30;;;4.50;;
11588;SDS011;5850;51.360;12.362;2023-05-10T01:11:14;4.70;;;4.00;;
11588;SDS011;5850;51.360;12.362;2023-05-10T01:13:43;8.93;;;4.30;;
11588;SDS011;5850;51.360;12.362;2023-05-10T01:16:18;7.13;;;4.57;;
11588;SDS011;5850;51.360;12.362;2023-05-10T01:18:47;5.53;;;4.43;;
11588;SDS011;5850;51.360;12.362;2023-05-10T01:27:02;7.00;;;4.40;;
11588;SDS011;5850;51.360;12.362;2023-05-10T01:36:19;4.70;;;4.23;;
11588;SDS011;5850;51.360;12.362;2023-05-10T01:42:26;5.47;;;4.40;;
11588;SDS011;5850;51.360;12.362;2023-05-10T01:45:11;7.13;;;4.40;;
11588;SDS011;5850;51.360;12.362;2023-05-10T01:48:07;5.90;;;4.00;;
11588;SDS011;5850;51.360;12.362;2023-05-10T01:50:38;6.77;;;4.73;;
11588;SDS011;5850;51.360;12.362;2023-05-10T01:53:11;8.50;;;4.90;;
11588;SDS011;5850;51.360;12.362;2023-05-10T01:55:43;5.97;;;4.67;;
11588;SDS011;5850;51.360;12.362;2023-05-10T01:58:22;5.47;;;4.90;;
11588;SDS011;5850;51.360;12.362;2023-05-10T02:00:55;5.83;;;4.40;;
11588;SDS011;5850;51.360;12.362;2023-05-10T02:03:28;6.23;;;5.10;;
11588;SDS011;5850;51.360;12.362;2023-05-10T02:05:56;4.80;;;4.30;;
11588;SDS011;5850;51.360;12.362;2023-05-10T02:08:26;5.77;;;4.70;;
11588;SDS011;5850;51.360;12.362;2023-05-10T02:10:55;5.10;;;4.37;;
11588;SDS011;5850;51.360;12.362;2023-05-10T02:13:25;8.00;;;5.00;;
11588;SDS011;5850;51.360;12.362;2023-05-10T02:15:55;4.17;;;3.77;;
11588;SDS011;5850;51.360;12.362;2023-05-10T02:18:25;5.70;;;4.20;;
11588;SDS011;5850;51.360;12.362;2023-05-10T02:20:54;5.03;;;4.33;;
11588;SDS011;5850;51.360;12.362;2023-05-10T02:23:23;5.27;;;4.60;;
11588;SDS011;5850;51.360;12.362;2023-05-10T02:25:53;5.13;;;4.60;;
11588;SDS011;5850;51.360;12.362;2023-05-10T02:28:24;6.20;;;4.20;;
11588;SDS011;5850;51.360;12.362;2023-05-10T02:30:53;6.20;;;4.57;;
11588;SDS011;5850;51.360;12.362;2023-05-10T02:33:22;6.27;;;4.40;;
11588;SDS011;5850;51.360;12.362;2023-05-10T02:35:51;6.60;;;4.60;;
11588;SDS011;5850;51.360;12.362;2023-05-10T02:38:20;5.47;;;4.30;;
11588;SDS011;5850;51.360;12.362;2023-05-10T02:40:49;5.03;;;4.53;;
11588;SDS011;5850;51.360;12.362;2023-05-10T02:43:19;5.07;;;4.53;;
11588;SDS011;5850;51.360;12.362;2023-05-10T02:45:50;7.13;;;4.23;;
11588;SDS011;5850;51.360;12.362;2023-05-10T02:48:18;6.43;;;4.23;;
11588;SDS011;5850;51.360;12.362;2023-05-10T02:50:47;4.67;;;4.20;;
11588;SDS011;5850;51.360;12.362;2023-05-10T02:53:18;4.43;;;3.97;;
11588;SDS011;5850;51.360;12.362;2023-05-10T02:55:51;14.37;;;6.87;;
11588;SDS011;5850;51.360;12.362;2023-05-10T02:58:22;4.47;;;4.07;;
11588;SDS011;5850;51.360;12.362;2023-05-10T03:00:50;4.50;;;4.00;;
11588;SDS011;5850;51.360;12.362;2023-05-10T03:03:19;5.27;;;4.37;;
11588;SDS011;5850;51.360;12.362;2023-05-10T03:05:47;5.07;;;4.57;;
11588;SDS011;5850;51.360;12.362;2023-05-10T03:08:15;4.50;;;4.10;;
11588;SDS011;5850;51.360;12.362;2023-05-10T03:10:50;5.07;;;4.47;;
11588;SDS011;5850;51.360;12.362;2023-05-10T03:20:07;7.40;;;4.50;;
11588;SDS011;5850;51.360;12.362;2023-05-10T03:22:40;5.07;;;4.27;;
11588;SDS011;5850;51.360;12.362;2023-05-10T03:25:15;5.13;;;4.47;;
11588;SDS011;5850;51.360;12.362;2023-05-10T03:27:45;7.57;;;4.63;;
11588;SDS011;5850;51.360;12.362;2023-05-10T03:30:14;7.97;;;4.40;;
11588;SDS011;5850;51.360;12.362;2023-05-10T03:32:43;5.50;;;5.00;;
11588;SDS011;5850;51.360;12.362;2023-05-10T03:35:12;5.10;;;4.60;;
11588;SDS011;5850;51.360;12.362;2023-05-10T03:37:40;5.60;;;4.70;;
11588;SDS011;5850;51.360;12.362;2023-05-10T03:40:09;4.97;;;4.57;;
11588;SDS011;5850;51.360;12.362;2023-05-10T03:42:37;8.93;;;4.77;;
11588;SDS011;5850;51.360;12.362;2023-05-10T03:45:06;6.37;;;3.93;;
11588;SDS011;5850;51.360;12.362;2023-05-10T03:47:35;4.97;;;4.43;;
11588;SDS011;5850;51.360;12.362;2023-05-10T03:50:04;4.53;;;4.03;;
11588;SDS011;5850;51.360;12.362;2023-05-10T03:52:33;4.37;;;3.53;;
11588;SDS011;5850;51.360;12.362;2023-05-10T03:55:02;7.23;;;4.50;;
11588;SDS011;5850;51.360;12.362;2023-05-10T03:57:30;7.40;;;4.73;;
11588;SDS011;5850;51.360;12.362;2023-05-10T03:59:59;8.77;;;4.57;;
11588;SDS011;5850;51.360;12.362;2023-05-10T04:02:29;5.00;;;4.37;;
11588;SDS011;5850;51.360;12.362;2023-05-10T04:04:57;6.50;;;4.33;;
11588;SDS011;5850;51.360;12.362;2023-05-10T04:07:26;5.07;;;4.33;;
11588;SDS011;5850;51.360;12.362;2023-05-10T04:09:54;5.70;;;4.70;;
11588;SDS011;5850;51.360;12.362;2023-05-10T04:12:22;6.87;;;4.90;;
11588;SDS011;5850;51.360;12.362;2023-05-10T04:14:50;7.57;;;4.73;;
11588;SDS011;5850;51.360;12.362;2023-05-10T04:17:18;5.13;;;4.63;;
11588;SDS011;5850;51.360;12.362;2023-05-10T04:19:47;6.20;;;4.00;;
11588;SDS011;5850;51.360;12.362;2023-05-10T04:22:15;5.07;;;4.40;;
11588;SDS011;5850;51.360;12.362;2023-05-10T04:24:44;5.20;;;4.70;;
11588;SDS011;5850;51.360;12.362;2023-05-10T04:27:12;6.17;;;4.20;;
11588;SDS011;5850;51.360;12.362;2023-05-10T04:29:40;7.67;;;4.40;;
11588;SDS011;5850;51.360;12.362;2023-05-10T04:32:09;4.20;;;3.63;;
11588;SDS011;5850;51.360;12.362;2023-05-10T04:34:37;4.53;;;4.10;;
11588;SDS011;5850;51.360;12.362;2023-05-10T04:37:05;4.90;;;4.40;;
11588;SDS011;5850;51.360;12.362;2023-05-10T04:39:34;7.40;;;3.90;;
11588;SDS011;5850;51.360;12.362;2023-05-10T04:42:03;6.63;;;4.43;;
11588;SDS011;5850;51.360;12.362;2023-05-10T04:44:32;6.27;;;4.53;;
11588;SDS011;5850;51.360;12.362;2023-05-10T04:47:00;5.17;;;4.17;;
11588;SDS011;5850;51.360;12.362;2023-05-10T04:49:29;5.80;;;4.10;;
11588;SDS011;5850;51.360;12.362;2023-05-10T04:51:57;4.10;;;3.80;;
11588;SDS011;5850;51.360;12.362;2023-05-10T04:54:25;4.60;;;4.20;;
11588;SDS011;5850;51.360;12.362;2023-05-10T04:56:53;7.27;;;4.63;;
11588;SDS011;5850;51.360;12.362;2023-05-10T04:59:22;5.03;;;4.20;;
11588;SDS011;5850;51.360;12.362;2023-05-10T05:01:50;4.47;;;4.07;;
11588;SDS011;5850;51.360;12.362;2023-05-10T05:04:18;4.97;;;4.40;;
11588;SDS011;5850;51.360;12.362;2023-05-10T05:06:46;4.43;;;4.03;;
11588;SDS011;5850;51.360;12.362;2023-05-10T05:09:18;4.83;;;3.80;;
11588;SDS011;5850;51.360;12.362;2023-05-10T05:11:47;4.27;;;3.50;;
11588;SDS011;5850;51.360;12.362;2023-05-10T05:14:15;7.30;;;4.53;;
11588;SDS011;5850;51.360;12.362;2023-05-10T05:16:43;5.30;;;4.47;;
11588;SDS011;5850;51.360;12.362;2023-05-10T05:19:11;5.03;;;4.33;;
11588;SDS011;5850;51.360;12.362;2023-05-10T05:21:40;6.03;;;4.00;;
11588;SDS011;5850;51.360;12.362;2023-05-10T05:24:09;5.77;;;3.97;;
11588;SDS011;5850;51.360;12.362;2023-05-10T05:26:38;8.97;;;4.70;;
11588;SDS011;5850;51.360;12.362;2023-05-10T05:29:07;4.07;;;3.53;;
11588;SDS011;5850;51.360;12.362;2023-05-10T05:31:35;4.53;;;3.70;;
11588;SDS011;5850;51.360;12.362;2023-05-10T05:34:04;4.50;;;4.10;;
11588;SDS011;5850;51.360;12.362;2023-05-10T05:36:35;6.30;;;3.43;;
11588;SDS011;5850;51.360;12.362;2023-05-10T05:39:05;9.13;;;4.20;;
11588;SDS011;5850;51.360;12.362;2023-05-10T05:41:34;4.57;;;4.00;;
11588;SDS011;5850;51.360;12.362;2023-05-10T05:44:02;3.70;;;3.17;;
11588;SDS011;5850;51.360;12.362;2023-05-10T05:46:31;3.97;;;3.30;;
11588;SDS011;5850;51.360;12.362;2023-05-10T05:48:59;6.33;;;3.83;;
11588;SDS011;5850;51.360;12.362;2023-05-10T05:51:28;3.23;;;2.93;;
11588;SDS011;5850;51.360;12.362;2023-05-10T05:53:57;3.13;;;2.80;;
11588;SDS011;5850;51.360;12.362;2023-05-10T05:56:25;4.17;;;3.47;;
11588;SDS011;5850;51.360;12.362;2023-05-10T05:58:54;3.17;;;2.87;;
11588;SDS011;5850;51.360;12.362;2023-05-10T06:01:22;3.40;;;3.10;;
11588;SDS011;5850;51.360;12.362;2023-05-10T06:03:51;5.63;;;3.80;;
11588;SDS011;5850;51.360;12.362;2023-05-10T06:06:19;3.50;;;3.20;;
11588;SDS011;5850;51.360;12.362;2023-05-10T06:08:48;4.40;;;3.67;;
11588;SDS011;5850;51.360;12.362;2023-05-10T06:11:17;3.67;;;3.30;;
11588;SDS011;5850;51.360;12.362;2023-05-10T06:13:47;6.40;;;3.73;;
11588;SDS011;5850;51.360;12.362;2023-05-10T06:16:15;3.30;;;3.00;;
11588;SDS011;5850;51.360;12.362;2023-05-10T06:18:44;4.70;;;3.70;;
11588;SDS011;5850;51.360;12.362;2023-05-10T06:21:13;5.60;;;3.33;;
11588;SDS011;5850;51.360;12.362;2023-05-10T06:23:42;5.67;;;3.23;;
11588;SDS011;5850;51.360;12.362;2023-05-10T06:26:11;3.23;;;2.93;;
11588;SDS011;5850;51.360;12.362;2023-05-10T06:28:40;3.50;;;3.20;;
11588;SDS011;5850;51.360;12.362;2023-05-10T06:31:08;4.70;;;3.47;;
11588;SDS011;5850;51.360;12.362;2023-05-10T06:33:38;7.20;;;3.30;;
11588;SDS011;5850;51.360;12.362;2023-05-10T06:36:06;3.30;;;3.00;;
11588;SDS011;5850;51.360;12.362;2023-05-10T06:38:35;3.37;;;3.07;;
11588;SDS011;5850;51.360;12.362;2023-05-10T06:41:03;4.27;;;3.40;;
11588;SDS011;5850;51.360;12.362;2023-05-10T06:43:32;4.30;;;3.50;;
11588;SDS011;5850;51.360;12.362;2023-05-10T06:46:01;3.60;;;3.30;;
11588;SDS011;5850;51.360;12.362;2023-05-10T06:48:29;7.40;;;3.53;;
11588;SDS011;5850;51.360;12.362;2023-05-10T06:50:58;5.37;;;4.10;;
11588;SDS011;5850;51.360;12.362;2023-05-10T06:53:27;6.07;;;3.40;;
11588;SDS011;5850;51.360;12.362;2023-05-10T06:55:56;6.00;;;3.07;;
11588;SDS011;5850;51.360;12.362;2023-05-10T06:58:24;5.67;;;3.23;;
11588;SDS011;5850;51.360;12.362;2023-05-10T07:00:53;4.67;;;3.40;;
11588;SDS011;5850;51.360;12.362;2023-05-10T07:03:29;3.50;;;3.20;;
11588;SDS011;5850;51.360;12.362;2023-05-10T07:06:01;4.80;;;3.37;;
11588;SDS011;5850;51.360;12.362;2023-05-10T07:08:31;4.20;;;3.23;;
11588;SDS011;5850;51.360;12.362;2023-05-10T07:11:02;3.07;;;2.77;;
11588;SDS011;5850;51.360;12.362;2023-05-10T07:13:33;3.30;;;3.00;;
11588;SDS011;5850;51.360;12.362;2023-05-10T07:16:02;3.60;;;3.30;;
11588;SDS011;5850;51.360;12.362;2023-05-10T07:18:32;3.37;;;2.90;;
11588;SDS011;5850;51.360;12.362;2023-05-10T07:21:01;5.60;;;3.50;;
11588;SDS011;5850;51.360;12.362;2023-05-10T07:23:30;3.57;;;3.27;;
11588;SDS011;5850;51.360;12.362;2023-05-10T07:25:59;6.63;;;3.43;;
11588;SDS011;5850;51.360;12.362;2023-05-10T07:28:28;4.03;;;3.10;;
11588;SDS011;5850;51.360;12.362;2023-05-10T07:30:56;4.83;;;3.73;;
11588;SDS011;5850;51.360;12.362;2023-05-10T07:33:25;3.90;;;3.40;;
11588;SDS011;5850;51.360;12.362;2023-05-10T07:35:54;5.13;;;3.27;;
11588;SDS011;5850;51.360;12.362;2023-05-10T07:38:22;5.43;;;3.23;;
11588;SDS011;5850;51.360;12.362;2023-05-10T07:40:51;4.40;;;3.20;;
11588;SDS011;5850;51.360;12.362;2023-05-10T07:43:19;7.60;;;3.00;;
11588;SDS011;5850;51.360;12.362;2023-05-10T07:45:49;6.03;;;3.47;;
11588;SDS011;5850;51.360;12.362;2023-05-10T07:48:21;4.47;;;3.23;;
11588;SDS011;5850;51.360;12.362;2023-05-10T07:50:49;3.53;;;3.23;;
11588;SDS011;5850;51.360;12.362;2023-05-10T07:53:18;3.50;;;3.10;;
11588;SDS011;5850;51.360;12.362;2023-05-10T07:55:50;7.43;;;3.33;;
11588;SDS011;5850;51.360;12.362;2023-05-10T07:58:19;3.60;;;3.30;;
11588;SDS011;5850;51.360;12.362;2023-05-10T08:00:47;4.70;;;3.10;;
11588;SDS011;5850;51.360;12.362;2023-05-10T08:03:16;3.97;;;3.57;;
11588;SDS011;5850;51.360;12.362;2023-05-10T08:05:44;4.03;;;3.63;;
11588;SDS011;5850;51.360;12.362;2023-05-10T08:08:13;5.13;;;3.30;;
11588;SDS011;5850;51.360;12.362;2023-05-10T08:10:41;3.97;;;3.67;;
11588;SDS011;5850;51.360;12.362;2023-05-10T08:13:10;2.87;;;2.53;;
11588;SDS011;5850;51.360;12.362;2023-05-10T08:15:38;4.50;;;4.10;;
11588;SDS011;5850;51.360;12.362;2023-05-10T08:18:07;3.23;;;2.93;;
11588;SDS011;5850;51.360;12.362;2023-05-10T08:20:35;4.33;;;3.67;;
11588;SDS011;5850;51.360;12.362;2023-05-10T08:23:04;4.20;;;3.10;;
11588;SDS011;5850;51.360;12.362;2023-05-10T08:25:34;5.83;;;3.67;;
11588;SDS011;5850;51.360;12.362;2023-05-10T08:28:03;5.27;;;3.40;;
11588;SDS011;5850;51.360;12.362;2023-05-10T08:30:31;5.97;;;3.33;;
11588;SDS011;5850;51.360;12.362;2023-05-10T08:33:00;4.13;;;3.73;;
11588;SDS011;5850;51.360;12.362;2023-05-10T08:35:28;6.50;;;3.50;;
11588;SDS011;5850;51.360;12.362;2023-05-10T08:37:57;5.37;;;3.47;;
11588;SDS011;5850;51.360;12.362;2023-05-10T08:40:29;5.00;;;3.73;;
11588;SDS011;5850;51.360;12.362;2023-05-10T08:43:05;4.57;;;3.67;;
11588;SDS011;5850;51.360;12.362;2023-05-10T08:45:40;4.17;;;3.10;;
11588;SDS011;5850;51.360;12.362;2023-05-10T08:48:13;4.27;;;3.87;;
11588;SDS011;5850;51.360;12.362;2023-05-10T08:50:44;4.33;;;3.10;;
11588;SDS011;5850;51.360;12.362;2023-05-10T08:53:14;3.47;;;3.17;;
11588;SDS011;5850;51.360;12.362;2023-05-10T08:55:43;4.87;;;3.33;;
11588;SDS011;5850;51.360;12.362;2023-05-10T09:00:40;4.13;;;3.70;;
11588;SDS011;5850;51.360;12.362;2023-05-10T09:03:09;4.47;;;3.73;;
11588;SDS011;5850;51.360;12.362;2023-05-10T09:05:38;4.70;;;3.77;;
11588;SDS011;5850;51.360;12.362;2023-05-10T09:08:07;8.00;;;4.10;;
11588;SDS011;5850;51.360;12.362;2023-05-10T09:10:36;6.27;;;3.80;;
11588;SDS011;5850;51.360;12.362;2023-05-10T09:13:06;4.93;;;4.30;;
11588;SDS011;5850;51.360;12.362;2023-05-10T09:15:38;4.77;;;4.23;;
11588;SDS011;5850;51.360;12.362;2023-05-10T09:18:06;3.93;;;3.63;;
11588;SDS011;5850;51.360;12.362;2023-05-10T09:20:35;4.93;;;4.20;;
11588;SDS011;5850;51.360;12.362;2023-05-10T09:23:04;4.30;;;3.83;;
11588;SDS011;5850;51.360;12.362;2023-05-10T09:25:32;6.47;;;4.27;;
11588;SDS011;5850;51.360;12.362;2023-05-10T09:28:01;5.23;;;4.00;;
11588;SDS011;5850;51.360;12.362;2023-05-10T09:30:30;5.20;;;3.57;;
11588;SDS011;5850;51.360;12.362;2023-05-10T09:32:59;5.93;;;4.60;;
11588;SDS011;5850;51.360;12.362;2023-05-10T09:35:28;5.30;;;4.80;;
11588;SDS011;5850;51.360;12.362;2023-05-10T09:38:03;4.80;;;4.30;;
11588;SDS011;5850;51.360;12.362;2023-05-10T09:40:32;5.97;;;4.63;;
11588;SDS011;5850;51.360;12.362;2023-05-10T09:43:05;5.63;;;5.10;;
11588;SDS011;5850;51.360;12.362;2023-05-10T09:45:35;5.97;;;5.20;;
11588;SDS011;5850;51.360;12.362;2023-05-10T09:48:04;5.90;;;5.30;;
11588;SDS011;5850;51.360;12.362;2023-05-10T09:50:33;10.23;;;5.70;;
11588;SDS011;5850;51.360;12.362;2023-05-10T09:53:03;6.93;;;5.40;;
11588;SDS011;5850;51.360;12.362;2023-05-10T09:58:15;7.90;;;5.30;;
11588;SDS011;5850;51.360;12.362;2023-05-10T10:00:44;6.07;;;5.47;;
11588;SDS011;5850;51.360;12.362;2023-05-10T10:03:19;5.93;;;5.33;;
11588;SDS011;5850;51.360;12.362;2023-05-10T10:05:48;5.90;;;5.40;;
11588;SDS011;5850;51.360;12.362;2023-05-10T10:08:17;7.30;;;5.77;;
11588;SDS011;5850;51.360;12.362;2023-05-10T10:10:46;7.60;;;5.87;;
11588;SDS011;5850;51.360;12.362;2023-05-10T10:13:16;6.13;;;5.50;;
11588;SDS011;5850;51.360;12.362;2023-05-10T10:15:45;6.57;;;5.73;;
11588;SDS011;5850;51.360;12.362;2023-05-10T10:18:17;7.47;;;5.97;;
11588;SDS011;5850;51.360;12.362;2023-05-10T10:20:49;5.30;;;4.80;;
11588;SDS011;5850;51.360;12.362;2023-05-10T10:23:18;5.77;;;5.17;;
11588;SDS011;5850;51.360;12.362;2023-05-10T10:25:46;6.03;;;5.47;;
11588;SDS011;5850;51.360;12.362;2023-05-10T10:31:12;6.93;;;5.80;;
11588;SDS011;5850;51.360;12.362;2023-05-10T10:34:06;6.67;;;6.03;;
11588;SDS011;5850;51.360;12.362;2023-05-10T10:36:44;6.73;;;6.10;;
11588;SDS011;5850;51.360;12.362;2023-05-10T10:39:14;7.13;;;6.43;;
11588;SDS011;5850;51.360;12.362;2023-05-10T10:41:50;6.40;;;5.63;;
11588;SDS011;5850;51.360;12.362;2023-05-10T10:55:17;7.00;;;6.07;;
11588;SDS011;5850;51.360;12.362;2023-05-10T10:57:49;6.57;;;5.93;;
11588;SDS011;5850;51.360;12.362;2023-05-10T11:11:04;6.03;;;5.43;;
11588;SDS011;5850;51.360;12.362;2023-05-10T11:16:10;7.20;;;6.07;;
11588;SDS011;5850;51.360;12.362;2023-05-10T11:18:59;11.30;;;5.87;;
11588;SDS011;5850;51.360;12.362;2023-05-10T11:21:33;6.40;;;5.80;;
11588;SDS011;5850;51.360;12.362;2023-05-10T11:24:15;7.00;;;6.13;;
11588;SDS011;5850;51.360;12.362;2023-05-10T11:26:49;7.60;;;6.27;;
11588;SDS011;5850;51.360;12.362;2023-05-10T11:29:18;7.73;;;6.97;;
11588;SDS011;5850;51.360;12.362;2023-05-10T11:31:47;8.60;;;6.90;;
11588;SDS011;5850;51.360;12.362;2023-05-10T11:34:26;7.27;;;6.57;;
11588;SDS011;5850;51.360;12.362;2023-05-10T11:36:57;8.87;;;8.07;;
11588;SDS011;5850;51.360;12.362;2023-05-10T11:39:26;7.83;;;7.00;;
11588;SDS011;5850;51.360;12.362;2023-05-10T11:41:56;8.97;;;7.53;;
11588;SDS011;5850;51.360;12.362;2023-05-10T11:44:32;7.63;;;6.83;;
11588;SDS011;5850;51.360;12.362;2023-05-10T11:47:01;8.17;;;7.00;;
11588;SDS011;5850;51.360;12.362;2023-05-10T11:49:29;9.33;;;8.33;;
11588;SDS011;5850;51.360;12.362;2023-05-10T11:52:07;9.00;;;7.50;;
11588;SDS011;5850;51.360;12.362;2023-05-10T11:54:37;7.57;;;6.87;;
11588;SDS011;5850;51.360;12.362;2023-05-10T11:57:12;7.47;;;6.43;;
11588;SDS011;5850;51.360;12.362;2023-05-10T11:59:40;7.27;;;6.57;;
11588;SDS011;5850;51.360;12.362;2023-05-10T12:02:09;11.10;;;8.20;;
11588;SDS011;5850;51.360;12.362;2023-05-10T12:04:38;7.77;;;6.77;;
11588;SDS011;5850;51.360;12.362;2023-05-10T12:07:06;10.00;;;7.33;;
11588;SDS011;5850;51.360;12.362;2023-05-10T12:09:35;7.77;;;7.07;;
11588;SDS011;5850;51.360;12.362;2023-05-10T12:12:09;6.40;;;5.80;;
11588;SDS011;5850;51.360;12.362;2023-05-10T12:14:42;8.27;;;6.70;;
11588;SDS011;5850;51.360;12.362;2023-05-10T12:17:11;7.87;;;7.17;;
11588;SDS011;5850;51.360;12.362;2023-05-10T12:19:40;9.63;;;8.73;;
11588;SDS011;5850;51.360;12.362;2023-05-10T12:22:10;7.77;;;6.97;;
11588;SDS011;5850;51.360;12.362;2023-05-10T12:24:38;8.07;;;6.90;;
11588;SDS011;5850;51.360;12.362;2023-05-10T12:27:10;8.27;;;7.07;;
11588;SDS011;5850;51.360;12.362;2023-05-10T12:29:41;7.50;;;6.70;;
11588;SDS011;5850;51.360;12.362;2023-05-10T12:32:11;11.93;;;8.50;;
11588;SDS011;5850;51.360;12.362;2023-05-10T12:34:39;8.03;;;7.23;;
11588;SDS011;5850;51.360;12.362;2023-05-10T12:37:08;8.53;;;7.70;;
11588;SDS011;5850;51.360;12.362;2023-05-10T12:39:40;7.87;;;7.00;;
11588;SDS011;5850;51.360;12.362;2023-05-10T12:42:12;7.67;;;6.97;;
11588;SDS011;5850;51.360;12.362;2023-05-10T12:44:40;6.73;;;6.10;;
11588;SDS011;5850;51.360;12.362;2023-05-10T12:47:09;6.80;;;6.20;;
11588;SDS011;5850;51.360;12.362;2023-05-10T12:49:38;7.20;;;6.50;;
11588;SDS011;5850;51.360;12.362;2023-05-10T12:52:06;6.73;;;6.13;;
11588;SDS011;5850;51.360;12.362;2023-05-10T12:54:35;6.37;;;5.83;;
11588;SDS011;5850;51.360;12.362;2023-05-10T12:57:03;6.37;;;5.83;;
11588;SDS011;5850;51.360;12.362;2023-05-10T12:59:32;8.30;;;6.73;;
11588;SDS011;5850;51.360;12.362;2023-05-10T13:02:03;7.87;;;7.07;;
11588;SDS011;5850;51.360;12.362;2023-05-10T13:04:33;7.13;;;6.53;;
11588;SDS011;5850;51.360;12.362;2023-05-10T13:07:03;7.30;;;6.27;;
11588;SDS011;5850;51.360;12.362;2023-05-10T13:09:32;7.30;;;6.63;;
11588;SDS011;5850;51.360;12.362;2023-05-10T13:12:01;7.67;;;6.03;;
11588;SDS011;5850;51.360;12.362;2023-05-10T13:14:31;6.67;;;6.07;;
11588;SDS011;5850;51.360;12.362;2023-05-10T13:17:00;8.13;;;6.43;;
11588;SDS011;5850;51.360;12.362;2023-05-10T13:19:28;8.13;;;7.33;;
11588;SDS011;5850;51.360;12.362;2023-05-10T13:21:57;5.33;;;4.93;;
11588;SDS011;5850;51.360;12.362;2023-05-10T13:24:25;7.67;;;6.27;;
11588;SDS011;5850;51.360;12.362;2023-05-10T13:26:54;5.17;;;4.77;;
11588;SDS011;5850;51.360;12.362;2023-05-10T13:29:22;6.50;;;5.87;;
11588;SDS011;5850;51.360;12.362;2023-05-10T13:31:51;7.57;;;5.90;;
11588;SDS011;5850;51.360;12.362;2023-05-10T13:34:20;5.70;;;5.20;;
11588;SDS011;5850;51.360;12.362;2023-05-10T13:36:48;5.80;;;5.30;;
11588;SDS011;5850;51.360;12.362;2023-05-10T13:39:17;5.70;;;5.20;;
11588;SDS011;5850;51.360;12.362;2023-05-10T13:41:46;5.40;;;4.90;;
11588;SDS011;5850;51.360;12.362;2023-05-10T13:44:15;5.30;;;4.80;;
11588;SDS011;5850;51.360;12.362;2023-05-10T13:46:43;5.60;;;5.10;;
11588;SDS011;5850;51.360;12.362;2023-05-10T13:49:12;5.40;;;4.90;;
11588;SDS011;5850;51.360;12.362;2023-05-10T13:51:43;6.10;;;5.40;;
11588;SDS011;5850;51.360;12.362;2023-05-10T13:54:11;5.63;;;5.17;;
11588;SDS011;5850;51.360;12.362;2023-05-10T13:56:41;5.23;;;4.73;;
11588;SDS011;5850;51.360;12.362;2023-05-10T13:59:10;4.50;;;4.10;;
11588;SDS011;5850;51.360;12.362;2023-05-10T14:01:38;4.53;;;4.07;;
11588;SDS011;5850;51.360;12.362;2023-05-10T14:04:08;5.20;;;4.80;;
11588;SDS011;5850;51.360;12.362;2023-05-10T14:06:37;4.87;;;4.37;;
11588;SDS011;5850;51.360;12.362;2023-05-10T14:09:05;4.70;;;4.30;;
11588;SDS011;5850;51.360;12.362;2023-05-10T14:11:34;5.40;;;4.90;;
11588;SDS011;5850;51.360;12.362;2023-05-10T14:14:03;4.67;;;4.23;;
11588;SDS011;5850;51.360;12.362;2023-05-10T14:16:31;5.30;;;4.87;;
11588;SDS011;5850;51.360;12.362;2023-05-10T14:19:00;4.97;;;4.57;;
11588;SDS011;5850;51.360;12.362;2023-05-10T14:21:29;3.80;;;3.50;;
11588;SDS011;5850;51.360;12.362;2023-05-10T14:23:57;2.77;;;2.57;;
11588;SDS011;5850;51.360;12.362;2023-05-10T14:26:26;2.17;;;2.07;;
11588;SDS011;5850;51.360;12.362;2023-05-10T14:28:54;2.13;;;1.93;;
11588;SDS011;5850;51.360;12.362;2023-05-10T14:31:23;1.70;;;1.60;;
11588;SDS011;5850;51.360;12.362;2023-05-10T14:33:52;1.90;;;1.80;;
11588;SDS011;5850;51.360;12.362;2023-05-10T14:36:20;3.20;;;1.47;;
11588;SDS011;5850;51.360;12.362;2023-05-10T14:38:49;1.63;;;1.53;;
11588;SDS011;5850;51.360;12.362;2023-05-10T14:41:18;2.20;;;1.60;;
11588;SDS011;5850;51.360;12.362;2023-05-10T14:43:46;2.27;;;1.87;;
11588;SDS011;5850;51.360;12.362;2023-05-10T14:46:15;2.23;;;2.03;;
11588;SDS011;5850;51.360;12.362;2023-05-10T14:48:43;3.07;;;2.27;;
11588;SDS011;5850;51.360;12.362;2023-05-10T14:51:12;2.10;;;1.90;;
11588;SDS011;5850;51.360;12.362;2023-05-10T14:53:40;2.83;;;2.17;;
11588;SDS011;5850;51.360;12.362;2023-05-10T14:56:09;2.70;;;2.33;;
11588;SDS011;5850;51.360;12.362;2023-05-10T14:58:38;2.90;;;2.70;;
11588;SDS011;5850;51.360;12.362;2023-05-10T15:01:06;2.90;;;2.70;;
11588;SDS011;5850;51.360;12.362;2023-05-10T15:03:35;10.67;;;5.37;;
11588;SDS011;5850;51.360;12.362;2023-05-10T15:06:05;3.20;;;2.90;;
11588;SDS011;5850;51.360;12.362;2023-05-10T15:08:33;4.13;;;3.77;;
11588;SDS011;5850;51.360;12.362;2023-05-10T15:11:02;5.33;;;3.63;;
11588;SDS011;5850;51.360;12.362;2023-05-10T15:13:30;4.23;;;3.90;;
11588;SDS011;5850;51.360;12.362;2023-05-10T15:15:59;5.10;;;4.67;;
11588;SDS011;5850;51.360;12.362;2023-05-10T15:18:27;3.43;;;3.13;;
11588;SDS011;5850;51.360;12.362;2023-05-10T15:20:56;2.73;;;2.53;;
11588;SDS011;5850;51.360;12.362;2023-05-10T15:23:25;3.40;;;2.13;;
11588;SDS011;5850;51.360;12.362;2023-05-10T15:25:53;2.43;;;2.00;;
11588;SDS011;5850;51.360;12.362;2023-05-10T15:28:22;3.57;;;1.87;;
11588;SDS011;5850;51.360;12.362;2023-05-10T15:30:50;1.90;;;1.70;;
11588;SDS011;5850;51.360;12.362;2023-05-10T15:33:19;1.83;;;1.40;;
11588;SDS011;5850;51.360;12.362;2023-05-10T15:35:47;4.40;;;1.60;;
11588;SDS011;5850;51.360;12.362;2023-05-10T15:38:15;5.50;;;1.73;;
11588;SDS011;5850;51.360;12.362;2023-05-10T15:40:44;3.30;;;1.60;;
11588;SDS011;5850;51.360;12.362;2023-05-10T15:43:12;3.57;;;1.90;;
11588;SDS011;5850;51.360;12.362;2023-05-10T15:45:41;2.03;;;1.50;;
11588;SDS011;5850;51.360;12.362;2023-05-10T15:48:09;4.03;;;2.20;;
11588;SDS011;5850;51.360;12.362;2023-05-10T15:50:38;1.97;;;1.77;;
11588;SDS011;5850;51.360;12.362;2023-05-10T15:53:07;2.10;;;1.67;;
11588;SDS011;5850;51.360;12.362;2023-05-10T15:55:36;1.60;;;1.50;;
11588;SDS011;5850;51.360;12.362;2023-05-10T15:58:04;1.70;;;1.60;;
11588;SDS011;5850;51.360;12.362;2023-05-10T16:00:33;1.60;;;1.50;;